Time;durP1;ratioP1;P1;durP2;ratioP2;P2;SDS_P1;SDS_P2;PMS_P1;PMS_P2;Temp;Humidity;BMP_temperature;BMP_pressure;BME280_temperature;BME280_humidity;BME280_pressure;Samples;Min_cycle;Max_cycle;Signal;HPM_P1;HPM_P2
2022/05/29 00:01:20;;;;;;;14.47;8.60;;;11.00;99.90;;;;;;5117825;28;20451;-82
2022/05/29 00:03:50;;;;;;;15.00;7.17;;;11.10;99.90;;;;;;5117388;28;20528;-81
2022/05/29 00:06:19;;;;;;;15.50;8.70;;;11.00;99.90;;;;;;5118476;28;20451;-80
2022/05/29 00:08:47;;;;;;;12.90;7.10;;;10.90;99.90;;;;;;5118409;28;20514;-81
2022/05/29 00:11:17;;;;;;;16.53;7.30;;;10.90;99.90;;;;;;5119116;28;20448;-81
2022/05/29 00:13:46;;;;;;;15.53;8.13;;;10.90;99.90;;;;;;5117734;28;20467;-83
2022/05/29 00:16:14;;;;;;;16.67;7.50;;;10.90;99.90;;;;;;5117137;28;20446;-83
2022/05/29 00:18:43;;;;;;;16.30;8.10;;;10.90;99.90;;;;;;5117084;28;20825;-82
2022/05/29 00:21:12;;;;;;;17.63;8.80;;;10.90;99.90;;;;;;5117082;28;20869;-82
2022/05/29 00:23:43;;;;;;;12.23;8.17;;;10.90;99.90;;;;;;5118072;28;20516;-82
2022/05/29 00:26:12;;;;;;;12.97;7.70;;;10.90;99.90;;;;;;5117215;28;20449;-82
2022/05/29 00:28:41;;;;;;;15.30;7.30;;;10.90;99.90;;;;;;5117290;28;20512;-82
2022/05/29 00:31:10;;;;;;;16.23;8.47;;;10.90;99.90;;;;;;5119232;28;20508;-83
2022/05/29 00:33:38;;;;;;;13.33;7.50;;;10.90;99.90;;;;;;5117938;28;20459;-83
2022/05/29 00:36:08;;;;;;;16.13;9.07;;;10.90;99.90;;;;;;5119459;28;20455;-81
2022/05/29 00:38:40;;;;;;;15.80;7.20;;;10.90;99.90;;;;;;5119529;28;20793;-82
2022/05/29 00:41:17;;;;;;;14.50;7.60;;;10.90;99.90;;;;;;5117575;28;21019;-80
2022/05/29 00:44:08;;;;;;;13.07;7.07;;;10.90;99.90;;;;;;5117646;28;20994;-83
2022/05/29 00:46:36;;;;;;;14.23;7.90;;;10.80;99.90;;;;;;5118563;28;20420;-82
2022/05/29 00:49:09;;;;;;;16.40;7.50;;;10.80;99.90;;;;;;5117493;28;20443;-83
2022/05/29 00:51:40;;;;;;;17.17;8.00;;;10.80;99.90;;;;;;5118053;28;20439;-83
2022/05/29 00:54:09;;;;;;;13.57;7.13;;;10.80;99.90;;;;;;5117562;28;21002;-81
2022/05/29 00:56:39;;;;;;;14.23;8.10;;;10.80;99.90;;;;;;5117185;28;21008;-82
2022/05/29 00:59:14;;;;;;;19.20;8.60;;;10.80;99.90;;;;;;5119429;28;20482;-82
2022/05/29 01:01:43;;;;;;;14.63;7.20;;;10.80;99.90;;;;;;5122106;27;20419;-81
2022/05/29 01:04:13;;;;;;;15.17;7.27;;;10.80;99.90;;;;;;5122086;28;20473;-81
2022/05/29 01:06:41;;;;;;;12.70;7.13;;;10.90;99.90;;;;;;5122993;28;20463;-81
2022/05/29 01:09:11;;;;;;;14.30;7.30;;;10.80;99.90;;;;;;5120693;28;20462;-83
2022/05/29 01:11:52;;;;;;;12.60;6.30;;;10.80;99.90;;;;;;5120740;28;20447;-83
2022/05/29 01:14:29;;;;;;;15.57;7.30;;;10.80;99.90;;;;;;5122125;28;20478;-83
2022/05/29 01:17:08;;;;;;;12.27;6.90;;;10.90;99.90;;;;;;5120468;28;20443;-83
2022/05/29 01:20:15;;;;;;;15.00;7.57;;;10.80;99.90;;;;;;5121950;28;20424;-82
2022/05/29 01:23:22;;;;;;;13.97;6.77;;;10.80;99.90;;;;;;5121308;28;20439;-82
2022/05/29 01:26:12;;;;;;;17.07;7.93;;;10.80;99.90;;;;;;5120669;28;20534;-83
2022/05/29 01:28:50;;;;;;;15.80;7.13;;;10.80;99.90;;;;;;5121378;28;20522;-81
2022/05/29 01:31:30;;;;;;;15.43;6.90;;;10.80;99.90;;;;;;5120231;28;20503;-82
2022/05/29 01:34:04;;;;;;;15.20;7.47;;;10.80;99.90;;;;;;5121570;28;20474;-82
2022/05/29 01:36:36;;;;;;;16.53;7.60;;;10.80;99.90;;;;;;5121044;28;20518;-82
2022/05/29 01:39:10;;;;;;;15.83;7.30;;;10.80;99.90;;;;;;5120842;28;20447;-82
2022/05/29 01:41:44;;;;;;;16.87;7.97;;;10.80;99.90;;;;;;5121871;28;20451;-82
2022/05/29 01:44:19;;;;;;;25.77;8.27;;;10.80;99.90;;;;;;5120194;28;20553;-83
2022/05/29 01:46:55;;;;;;;15.40;7.27;;;10.80;99.90;;;;;;5119879;28;20874;-83
2022/05/29 01:49:27;;;;;;;13.30;7.33;;;10.80;99.90;;;;;;5120383;28;20514;-82
2022/05/29 01:52:01;;;;;;;20.70;7.07;;;10.80;99.90;;;;;;5119574;28;20442;-83
2022/05/29 01:54:37;;;;;;;18.70;8.20;;;10.80;99.90;;;;;;5119610;28;20490;-81
2022/05/29 01:57:11;;;;;;;12.07;6.83;;;10.80;99.90;;;;;;5119597;28;20471;-83
2022/05/29 01:59:45;;;;;;;15.93;7.40;;;10.80;99.90;;;;;;5121774;28;20484;-83
2022/05/29 02:02:18;;;;;;;14.70;6.50;;;10.80;99.90;;;;;;5120772;28;20884;-83
2022/05/29 02:04:50;;;;;;;15.97;6.57;;;10.80;99.90;;;;;;5122682;28;20463;-83
2022/05/29 02:10:11;;;;;;;16.10;7.57;;;10.80;99.90;;;;;;5119804;28;20867;-83
2022/05/29 02:12:44;;;;;;;13.10;6.70;;;10.80;99.90;;;;;;5120128;28;20463;-82
2022/05/29 02:15:18;;;;;;;13.60;7.57;;;10.80;99.90;;;;;;5121525;28;20427;-82
2022/05/29 02:17:52;;;;;;;13.87;6.63;;;10.80;99.90;;;;;;5120543;28;21029;-81
2022/05/29 02:20:24;;;;;;;13.40;7.20;;;10.80;99.90;;;;;;5121552;28;20507;-84
2022/05/29 02:22:56;;;;;;;14.73;7.37;;;10.80;99.90;;;;;;5121898;28;20546;-82
2022/05/29 02:25:28;;;;;;;14.70;7.30;;;10.90;99.90;;;;;;5121500;28;20983;-83
2022/05/29 02:28:01;;;;;;;15.03;7.57;;;10.80;99.90;;;;;;5121949;28;20464;-83
2022/05/29 02:30:39;;;;;;;13.20;7.70;;;10.80;99.90;;;;;;5119829;28;21031;-83
2022/05/29 02:33:13;;;;;;;14.03;7.90;;;10.80;99.90;;;;;;5119999;28;20577;-82
2022/05/29 02:35:47;;;;;;;13.77;7.47;;;10.80;99.90;;;;;;5119794;28;20439;-84
2022/05/29 02:38:21;;;;;;;14.87;6.80;;;10.80;99.90;;;;;;5121151;28;20515;-83
2022/05/29 02:40:58;;;;;;;14.43;7.63;;;10.70;99.90;;;;;;5119311;28;20810;-84
2022/05/29 02:43:36;;;;;;;15.37;7.10;;;10.80;99.90;;;;;;5127722;28;20471;-83
2022/05/29 02:46:14;;;;;;;16.50;7.80;;;10.80;99.90;;;;;;5125297;28;20439;-82
2022/05/29 02:48:50;;;;;;;13.97;7.57;;;10.80;99.90;;;;;;5123256;28;20526;-82
2022/05/29 02:51:24;;;;;;;12.60;7.40;;;10.80;99.90;;;;;;5120950;28;20412;-81
2022/05/29 02:53:52;;;;;;;14.63;7.43;;;10.80;99.90;;;;;;5120915;28;20582;-83
2022/05/29 02:56:20;;;;;;;16.50;7.47;;;10.80;99.90;;;;;;5119788;28;20457;-83
2022/05/29 02:58:53;;;;;;;16.03;7.50;;;10.80;99.90;;;;;;5119123;28;20447;-81
2022/05/29 03:01:33;;;;;;;19.03;8.10;;;10.80;99.90;;;;;;5118342;28;20432;-82
2022/05/29 03:04:17;;;;;;;17.50;7.87;;;10.80;99.90;;;;;;5119234;28;20463;-82
2022/05/29 03:06:51;;;;;;;15.90;7.67;;;10.80;99.90;;;;;;5119042;28;20432;-83
2022/05/29 03:09:34;;;;;;;14.60;8.03;;;10.80;99.90;;;;;;5118883;28;20526;-82
2022/05/29 03:12:08;;;;;;;18.80;7.73;;;10.80;99.90;;;;;;5119449;28;20956;-81
2022/05/29 03:14:45;;;;;;;17.40;8.80;;;10.80;99.90;;;;;;5118567;28;20475;-83
2022/05/29 03:17:24;;;;;;;16.00;7.40;;;10.80;99.90;;;;;;5120302;28;20960;-81
2022/05/29 03:20:02;;;;;;;15.00;7.63;;;10.80;99.90;;;;;;5118882;28;20447;-82
2022/05/29 03:22:44;;;;;;;13.57;7.03;;;10.70;99.90;;;;;;5116694;28;20441;-82
2022/05/29 03:25:18;;;;;;;13.83;7.03;;;10.70;99.90;;;;;;5119461;28;20467;-82
2022/05/29 03:27:49;;;;;;;16.23;7.80;;;10.70;99.90;;;;;;5120178;28;20415;-83
2022/05/29 03:30:20;;;;;;;13.37;7.50;;;10.70;99.90;;;;;;5118486;28;20450;-83
2022/05/29 03:32:53;;;;;;;14.13;7.13;;;10.70;99.90;;;;;;5119795;28;20523;-83
2022/05/29 03:35:26;;;;;;;19.50;7.00;;;10.70;99.90;;;;;;5118226;28;20991;-83
2022/05/29 03:37:55;;;;;;;14.00;7.00;;;10.70;99.90;;;;;;5118185;28;20444;-82
2022/05/29 03:40:25;;;;;;;14.10;8.03;;;10.80;99.90;;;;;;5118530;28;20805;-82
2022/05/29 03:42:53;;;;;;;19.93;8.33;;;10.80;99.90;;;;;;5118663;28;20479;-82
2022/05/29 03:45:22;;;;;;;14.40;7.27;;;10.70;99.90;;;;;;5118949;28;21030;-83
2022/05/29 03:47:52;;;;;;;15.80;7.40;;;10.80;99.90;;;;;;5119738;28;20818;-82
2022/05/29 03:50:22;;;;;;;13.47;7.53;;;10.80;99.90;;;;;;5119336;28;20478;-81
2022/05/29 03:52:50;;;;;;;14.70;6.73;;;10.80;99.90;;;;;;5119193;28;20455;-83
2022/05/29 03:55:21;;;;;;;13.73;7.70;;;10.80;99.90;;;;;;5119435;28;21074;-82
2022/05/29 03:57:50;;;;;;;14.13;7.27;;;10.80;99.90;;;;;;5118243;28;20446;-83
2022/05/29 04:00:19;;;;;;;12.20;7.57;;;10.80;99.90;;;;;;5118400;28;20807;-82
2022/05/29 04:02:48;;;;;;;13.50;6.90;;;10.80;99.90;;;;;;5118182;28;20497;-83
2022/05/29 04:05:20;;;;;;;18.30;7.80;;;10.80;99.90;;;;;;5119399;28;20443;-82
2022/05/29 04:13:23;;;;;;;12.13;7.20;;;10.80;99.90;;;;;;5118914;28;20501;-82
2022/05/29 04:15:52;;;;;;;13.87;6.80;;;10.80;99.90;;;;;;5118552;28;20471;-83
2022/05/29 04:18:22;;;;;;;14.13;7.00;;;10.80;99.90;;;;;;5120207;28;20469;-83
2022/05/29 04:20:53;;;;;;;14.23;7.97;;;10.90;99.90;;;;;;5119382;28;20478;-82
2022/05/29 04:23:21;;;;;;;14.53;7.60;;;10.90;99.90;;;;;;5119802;28;20558;-84
2022/05/29 04:25:50;;;;;;;19.67;8.13;;;10.90;99.90;;;;;;5120594;28;20443;-82
2022/05/29 04:28:19;;;;;;;13.30;6.87;;;10.90;99.90;;;;;;5121824;28;20490;-84
2022/05/29 04:30:47;;;;;;;12.30;7.20;;;10.90;99.90;;;;;;5119743;28;20447;-84
2022/05/29 04:33:15;;;;;;;15.10;8.10;;;10.90;99.90;;;;;;5118931;28;20562;-82
2022/05/29 04:35:45;;;;;;;15.87;6.57;;;10.90;99.90;;;;;;5119542;28;20971;-83
2022/05/29 04:38:16;;;;;;;15.57;7.47;;;11.00;99.90;;;;;;5119995;28;20455;-83
2022/05/29 04:40:45;;;;;;;18.10;7.17;;;10.90;99.90;;;;;;5118265;28;20478;-83
2022/05/29 04:43:14;;;;;;;14.30;6.50;;;10.90;99.90;;;;;;5132206;28;20491;-82
2022/05/29 04:45:45;;;;;;;16.27;7.50;;;10.90;99.90;;;;;;5130299;28;20449;-83
2022/05/29 04:48:16;;;;;;;13.73;7.30;;;10.90;99.90;;;;;;5126576;28;20436;-83
2022/05/29 04:50:55;;;;;;;14.03;6.13;;;10.90;99.90;;;;;;5119525;28;20894;-83
2022/05/29 04:53:25;;;;;;;11.20;5.80;;;11.00;99.90;;;;;;5119602;28;21098;-83
2022/05/29 04:55:54;;;;;;;14.50;6.37;;;11.00;99.90;;;;;;5119705;28;20490;-83
2022/05/29 04:58:24;;;;;;;13.90;5.93;;;11.00;99.90;;;;;;5121043;28;20474;-83
2022/05/29 05:00:56;;;;;;;12.70;6.60;;;11.00;99.90;;;;;;5119546;28;20439;-82
2022/05/29 05:03:25;;;;;;;18.10;7.73;;;11.00;99.90;;;;;;5119162;28;20475;-83
2022/05/29 05:05:53;;;;;;;13.10;6.10;;;11.10;99.90;;;;;;5119635;28;20440;-83
2022/05/29 05:08:21;;;;;;;14.70;6.23;;;11.10;99.90;;;;;;5119455;28;20453;-83
2022/05/29 05:10:51;;;;;;;11.20;5.90;;;11.10;99.90;;;;;;5120915;28;20454;-83
2022/05/29 05:13:19;;;;;;;14.53;6.43;;;11.20;99.90;;;;;;5118503;28;20471;-82
2022/05/29 05:15:48;;;;;;;12.80;6.70;;;11.20;99.90;;;;;;5121706;28;20463;-82
2022/05/29 05:18:16;;;;;;;13.27;7.10;;;11.10;99.90;;;;;;5118368;28;20450;-83
2022/05/29 05:20:44;;;;;;;16.33;7.87;;;11.10;99.90;;;;;;5118348;28;20451;-82
2022/05/29 05:23:13;;;;;;;14.00;7.30;;;11.20;99.90;;;;;;5118144;28;20484;-82
2022/05/29 05:25:41;;;;;;;13.53;7.30;;;11.20;99.90;;;;;;5117726;28;20445;-83
2022/05/29 05:28:10;;;;;;;13.27;7.57;;;11.20;99.90;;;;;;5117982;28;20489;-83
2022/05/29 05:30:39;;;;;;;11.50;6.90;;;11.20;99.90;;;;;;5118289;28;20447;-83
2022/05/29 05:33:07;;;;;;;11.23;6.43;;;11.20;99.90;;;;;;5117983;28;20467;-83
2022/05/29 05:35:36;;;;;;;12.20;7.00;;;11.20;99.90;;;;;;5118235;28;20459;-83
2022/05/29 05:38:06;;;;;;;11.40;6.90;;;11.30;99.90;;;;;;5118290;28;20472;-84
2022/05/29 05:40:35;;;;;;;13.10;6.67;;;11.30;99.90;;;;;;5117278;28;20448;-84
2022/05/29 05:43:03;;;;;;;16.10;6.97;;;11.20;99.90;;;;;;5119822;28;20561;-83
2022/05/29 05:45:32;;;;;;;12.37;6.93;;;11.30;99.90;;;;;;5121114;28;20442;-82
2022/05/29 05:48:01;;;;;;;13.97;6.60;;;11.30;99.90;;;;;;5121792;28;20541;-82
2022/05/29 05:50:31;;;;;;;14.70;6.87;;;11.30;99.90;;;;;;5120591;28;20450;-81
2022/05/29 05:52:59;;;;;;;13.90;7.20;;;11.30;99.90;;;;;;5122864;28;20549;-83
2022/05/29 05:55:28;;;;;;;14.80;6.40;;;11.30;99.90;;;;;;5122029;28;20472;-83
2022/05/29 05:57:56;;;;;;;15.17;7.17;;;11.30;99.90;;;;;;5121047;28;20435;-81
2022/05/29 06:00:24;;;;;;;14.87;7.43;;;11.30;99.90;;;;;;5121999;28;20447;-81
2022/05/29 06:02:54;;;;;;;14.73;6.10;;;11.30;99.90;;;;;;5121479;28;20463;-83
2022/05/29 06:05:23;;;;;;;14.70;5.60;;;11.30;99.90;;;;;;5121253;28;20478;-80
2022/05/29 06:07:51;;;;;;;13.10;6.00;;;11.30;99.90;;;;;;5122280;28;20435;-83
2022/05/29 06:10:19;;;;;;;12.20;6.23;;;11.30;99.90;;;;;;5122874;28;20515;-83
2022/05/29 06:12:47;;;;;;;12.67;4.80;;;11.30;99.90;;;;;;5121228;28;20459;-82
2022/05/29 06:15:15;;;;;;;13.07;5.63;;;11.30;99.90;;;;;;5121212;28;20531;-82
2022/05/29 06:17:44;;;;;;;12.00;5.90;;;11.30;99.90;;;;;;5121673;28;20805;-83
2022/05/29 06:20:13;;;;;;;14.03;5.47;;;11.30;99.90;;;;;;5120748;28;20465;-82
2022/05/29 06:22:42;;;;;;;14.47;5.10;;;11.30;99.90;;;;;;5123311;28;20484;-82
2022/05/29 06:25:11;;;;;;;10.57;5.50;;;11.20;99.90;;;;;;5121527;28;20447;-82
2022/05/29 06:27:40;;;;;;;12.07;4.80;;;11.20;99.90;;;;;;5123906;28;20530;-82
2022/05/29 06:30:11;;;;;;;13.83;5.00;;;11.20;99.90;;;;;;5121891;28;20469;-83
2022/05/29 06:32:40;;;;;;;11.47;5.00;;;11.20;99.90;;;;;;5123708;28;20412;-83
2022/05/29 06:35:11;;;;;;;13.60;4.83;;;11.30;99.90;;;;;;5121963;28;20483;-82
2022/05/29 06:37:41;;;;;;;14.13;5.37;;;11.30;99.90;;;;;;5120557;28;20477;-84
2022/05/29 06:40:12;;;;;;;11.57;5.37;;;11.30;99.90;;;;;;5120516;28;20497;-84
2022/05/29 06:42:40;;;;;;;11.07;4.53;;;11.30;99.90;;;;;;5121380;28;20858;-83
2022/05/29 06:45:10;;;;;;;14.80;5.10;;;11.30;99.90;;;;;;5117835;28;20464;-83
2022/05/29 06:47:38;;;;;;;10.33;4.90;;;11.30;99.90;;;;;;5118413;28;20451;-85
2022/05/29 06:50:08;;;;;;;13.00;5.50;;;11.30;99.90;;;;;;5120161;28;20441;-84
2022/05/29 06:52:36;;;;;;;13.60;5.37;;;11.30;99.90;;;;;;5118717;28;20986;-81
2022/05/29 06:55:08;;;;;;;11.43;5.33;;;11.30;99.90;;;;;;5120347;28;20467;-81
2022/05/29 06:57:40;;;;;;;12.93;5.00;;;11.30;99.90;;;;;;5120831;27;20494;-82
2022/05/29 07:08:32;;;;;;;9.77;4.40;;;11.30;99.90;;;;;;5121912;28;20457;-82
2022/05/29 07:11:06;;;;;;;9.83;4.97;;;11.30;99.90;;;;;;5120611;28;21138;-86
2022/05/29 07:13:35;;;;;;;10.77;4.50;;;11.40;99.90;;;;;;5133914;28;20530;-83
2022/05/29 07:16:04;;;;;;;11.57;4.73;;;11.40;99.90;;;;;;5134062;28;20463;-79
2022/05/29 07:18:33;;;;;;;10.53;4.83;;;11.40;99.90;;;;;;5127905;28;20785;-85
2022/05/29 07:21:02;;;;;;;11.43;5.07;;;11.50;99.90;;;;;;5118672;28;20447;-85
2022/05/29 07:23:31;;;;;;;9.47;4.60;;;11.50;99.90;;;;;;5119210;28;20467;-81
2022/05/29 07:26:00;;;;;;;15.00;5.23;;;11.50;99.90;;;;;;5118873;28;20538;-81
2022/05/29 07:28:29;;;;;;;12.77;4.57;;;11.50;99.90;;;;;;5118291;28;20542;-80
2022/05/29 07:30:58;;;;;;;19.40;6.40;;;11.50;99.90;;;;;;5119111;28;20451;-83
2022/05/29 07:33:28;;;;;;;10.30;4.97;;;11.50;99.90;;;;;;5117491;28;20487;-82
2022/05/29 07:35:56;;;;;;;10.93;5.57;;;11.60;99.90;;;;;;5117508;28;20996;-83
2022/05/29 07:38:24;;;;;;;15.17;5.23;;;11.60;99.90;;;;;;5117979;28;21013;-84
2022/05/29 07:40:53;;;;;;;9.70;4.87;;;11.60;99.90;;;;;;5117067;28;20458;-83
2022/05/29 07:43:26;;;;;;;13.63;5.30;;;11.60;99.90;;;;;;5117091;28;20504;-82
2022/05/29 07:45:57;;;;;;;18.53;5.97;;;11.70;99.90;;;;;;5116063;28;20909;-85
2022/05/29 07:48:28;;;;;;;14.50;5.03;;;11.70;99.90;;;;;;5113218;28;20798;-82
2022/05/29 07:50:57;;;;;;;12.40;5.30;;;11.70;99.90;;;;;;5116388;28;20988;-80
2022/05/29 07:53:26;;;;;;;11.60;4.97;;;11.80;99.90;;;;;;5117309;28;20574;-82
2022/05/29 07:55:54;;;;;;;11.27;4.57;;;11.80;99.90;;;;;;5117208;28;20477;-75
2022/05/29 07:58:23;;;;;;;12.47;4.67;;;11.80;99.90;;;;;;5117320;28;20443;-83
2022/05/29 08:00:52;;;;;;;12.43;4.40;;;11.80;99.90;;;;;;5116137;28;20458;-84
2022/05/29 08:03:22;;;;;;;11.00;4.20;;;11.90;99.90;;;;;;5115913;28;20482;-81
2022/05/29 08:05:50;;;;;;;11.60;4.50;;;11.90;99.90;;;;;;5117089;28;20444;-82
2022/05/29 08:08:19;;;;;;;9.10;3.87;;;11.90;99.90;;;;;;5116149;28;20479;-84
2022/05/29 08:10:47;;;;;;;7.70;4.30;;;11.90;99.90;;;;;;5118043;28;21016;-85
2022/05/29 08:13:16;;;;;;;13.57;4.90;;;11.90;99.90;;;;;;5118473;28;20482;-83
2022/05/29 08:15:45;;;;;;;8.97;4.37;;;12.00;99.90;;;;;;5117707;28;20467;-84
2022/05/29 08:18:14;;;;;;;8.93;3.80;;;11.90;99.90;;;;;;5117219;28;20455;-84
2022/05/29 08:20:43;;;;;;;9.73;3.80;;;11.90;99.90;;;;;;5117034;28;20443;-82
2022/05/29 08:23:15;;;;;;;7.60;4.17;;;12.00;99.90;;;;;;5113983;28;20523;-80
2022/05/29 08:31:26;;;;;;;8.27;3.57;;;12.20;99.90;;;;;;5112511;28;20444;-83
2022/05/29 08:33:55;;;;;;;7.63;2.90;;;12.20;99.90;;;;;;5116391;28;20514;-82
2022/05/29 08:36:26;;;;;;;8.67;3.60;;;12.20;99.90;;;;;;5113589;28;20501;-80
2022/05/29 08:38:56;;;;;;;8.17;3.33;;;12.30;99.90;;;;;;5116229;28;20431;-82
2022/05/29 08:41:34;;;;;;;8.03;3.97;;;12.30;99.90;;;;;;5114911;28;20504;-82
2022/05/29 08:44:06;;;;;;;10.97;4.13;;;12.30;99.90;;;;;;5113885;28;20459;-85
2022/05/29 08:46:40;;;;;;;10.40;4.77;;;12.40;99.90;;;;;;5114480;28;20436;-81
2022/05/29 08:49:15;;;;;;;10.90;3.40;;;12.40;99.90;;;;;;5115536;28;20610;-85
2022/05/29 08:52:04;;;;;;;9.60;3.67;;;12.40;99.90;;;;;;5115301;28;20840;-84
2022/05/29 08:54:46;;;;;;;7.53;3.60;;;12.50;99.90;;;;;;5115621;28;20869;-83
2022/05/29 08:57:30;;;;;;;11.60;3.40;;;12.40;99.90;;;;;;5115415;28;20512;-83
2022/05/29 09:00:00;;;;;;;10.70;4.37;;;12.40;99.90;;;;;;5116850;28;20465;-86
2022/05/29 09:02:43;;;;;;;8.63;4.10;;;12.30;99.90;;;;;;5120039;28;20447;-83
2022/05/29 09:05:19;;;;;;;8.73;3.87;;;12.30;99.90;;;;;;5129210;28;20519;-82
2022/05/29 09:07:49;;;;;;;9.63;4.00;;;12.30;99.90;;;;;;5128330;28;20534;-85
2022/05/29 09:10:23;;;;;;;7.57;3.43;;;12.30;99.90;;;;;;5129959;28;20471;-80
2022/05/29 09:12:54;;;;;;;7.30;3.37;;;12.30;99.90;;;;;;5126182;28;20836;-83
2022/05/29 09:15:31;;;;;;;8.47;3.60;;;12.40;99.90;;;;;;5132281;28;20462;-82
2022/05/29 09:18:03;;;;;;;7.70;3.77;;;12.40;99.90;;;;;;5131435;28;20459;-81
2022/05/29 09:20:40;;;;;;;7.97;4.03;;;12.50;99.90;;;;;;5132750;28;20439;-81
2022/05/29 09:23:14;;;;;;;6.17;2.70;;;12.50;99.90;;;;;;5130995;28;20475;-81
2022/05/29 09:25:44;;;;;;;13.10;3.73;;;12.60;99.90;;;;;;5132562;28;20449;-82
2022/05/29 09:28:16;;;;;;;10.47;3.93;;;12.70;99.90;;;;;;5130143;28;20453;-84
2022/05/29 09:30:45;;;;;;;12.40;3.87;;;12.60;99.90;;;;;;5128223;28;20435;-85
2022/05/29 09:33:19;;;;;;;8.40;2.90;;;12.60;99.90;;;;;;5130962;28;20882;-84
2022/05/29 09:35:53;;;;;;;9.37;3.43;;;12.70;99.90;;;;;;5128070;28;20431;-85
2022/05/29 09:38:27;;;;;;;8.23;3.10;;;12.60;99.90;;;;;;5131355;28;20427;-80
2022/05/29 09:41:01;;;;;;;8.73;3.80;;;12.70;99.90;;;;;;5130340;28;20463;-84
2022/05/29 09:43:30;;;;;;;8.07;3.70;;;12.70;99.90;;;;;;5131106;28;20475;-80
2022/05/29 09:46:19;;;;;;;7.83;3.20;;;12.60;99.90;;;;;;5124662;28;20832;-82
2022/05/29 09:51:45;;;;;;;8.27;2.90;;;12.60;99.90;;;;;;5121252;28;20427;-85
2022/05/29 09:54:25;;;;;;;7.23;2.60;;;12.50;99.90;;;;;;5121117;28;20488;-85
2022/05/29 09:56:53;;;;;;;8.23;3.20;;;12.60;99.90;;;;;;5120973;28;20455;-82
2022/05/29 09:59:24;;;;;;;6.17;3.10;;;12.60;99.90;;;;;;5121239;28;20436;-83
2022/05/29 10:02:02;;;;;;;7.20;3.47;;;12.60;99.90;;;;;;5123270;28;20420;-84
2022/05/29 10:04:37;;;;;;;8.63;3.27;;;12.60;99.90;;;;;;5121510;28;20471;-83
2022/05/29 10:07:18;;;;;;;8.33;2.80;;;12.60;99.90;;;;;;5123665;28;20450;-83
2022/05/29 10:10:01;;;;;;;6.40;2.67;;;12.60;99.90;;;;;;5120681;28;20439;-85
2022/05/29 10:12:44;;;;;;;7.30;2.93;;;12.60;99.90;;;;;;5122975;28;20448;-82
2022/05/29 10:15:34;;;;;;;7.43;3.50;;;12.70;99.90;;;;;;5122892;28;20765;-82
2022/05/29 10:18:11;;;;;;;6.47;2.43;;;12.70;99.90;;;;;;5122134;28;20512;-83
2022/05/29 10:20:43;;;;;;;5.90;2.40;;;12.80;99.90;;;;;;5121991;28;20516;-85
2022/05/29 10:23:14;;;;;;;7.60;2.77;;;12.70;99.90;;;;;;5122704;28;20467;-85
2022/05/29 10:25:55;;;;;;;6.40;2.53;;;12.70;99.90;;;;;;5127855;28;20443;-84
2022/05/29 10:28:29;;;;;;;6.37;3.07;;;12.80;99.90;;;;;;5137034;28;20469;-83
2022/05/29 10:31:00;;;;;;;7.20;2.67;;;12.90;99.90;;;;;;5136415;28;20432;-83
2022/05/29 10:33:31;;;;;;;6.70;3.33;;;13.00;99.90;;;;;;5126136;28;20489;-83
2022/05/29 10:36:13;;;;;;;6.70;2.90;;;13.10;99.90;;;;;;5122170;28;20442;-84
2022/05/29 10:38:42;;;;;;;6.17;2.83;;;13.20;99.90;;;;;;5122520;28;20470;-82
2022/05/29 10:41:11;;;;;;;7.27;2.60;;;13.20;99.90;;;;;;5123246;28;20602;-83
2022/05/29 10:43:53;;;;;;;6.40;2.90;;;13.10;99.90;;;;;;5120789;28;20598;-79
2022/05/29 10:46:23;;;;;;;7.50;3.97;;;13.10;99.90;;;;;;5120893;28;20457;-82
2022/05/29 10:49:24;;;;;;;8.93;3.33;;;13.00;99.90;;;;;;5121468;28;20777;-81
2022/05/29 10:52:26;;;;;;;8.00;4.07;;;13.00;99.90;;;;;;5121052;28;20451;-80
2022/05/29 10:55:28;;;;;;;6.67;3.20;;;12.90;99.90;;;;;;5121620;28;20550;-81
2022/05/29 10:58:22;;;;;;;7.23;3.30;;;12.90;99.90;;;;;;5126285;28;20526;-83
2022/05/29 11:03:17;;;;;;;7.50;3.77;;;13.00;99.90;;;;;;5126149;28;20470;-82
2022/05/29 11:04:09;;;;;;;6.60;3.63;;;12.90;99.90;;;;;;5125548;28;21068;-84
2022/05/29 11:06:55;;;;;;;7.20;3.60;;;12.90;99.90;;;;;;5123934;28;20432;-85
2022/05/29 11:09:53;;;;;;;7.20;2.70;;;12.90;99.90;;;;;;5123503;28;20446;-82
2022/05/29 11:12:52;;;;;;;8.77;3.70;;;12.90;99.90;;;;;;5122900;28;20781;-83
2022/05/29 11:15:32;;;;;;;7.30;3.03;;;12.90;99.90;;;;;;5120827;28;20450;-82
2022/05/29 11:18:29;;;;;;;8.60;3.80;;;12.80;99.90;;;;;;5121020;28;20493;-80
2022/05/29 11:21:08;;;;;;;6.80;3.30;;;12.90;99.90;;;;;;5119402;28;20500;-82
2022/05/29 11:24:00;;;;;;;9.30;3.93;;;12.90;99.90;;;;;;5119776;28;20558;-80
2022/05/29 11:26:49;;;;;;;6.53;3.23;;;13.00;99.90;;;;;;5120234;28;20447;-83
2022/05/29 11:29:40;;;;;;;7.33;2.77;;;13.10;99.90;;;;;;5120716;28;20518;-84
2022/05/29 11:32:37;;;;;;;6.97;3.13;;;13.20;99.90;;;;;;5122036;28;20439;-80
2022/05/29 11:35:17;;;;;;;6.50;2.67;;;13.30;99.90;;;;;;5120256;28;20436;-82
2022/05/29 11:38:19;;;;;;;7.17;3.20;;;13.30;99.90;;;;;;5120640;28;20483;-83
2022/05/29 11:40:52;;;;;;;8.20;2.97;;;13.30;99.90;;;;;;5106623;28;20454;-84
2022/05/29 11:43:28;;;;;;;6.03;2.93;;;13.40;99.90;;;;;;5119160;28;20509;-83
2022/05/29 11:51:50;;;;;;;5.00;3.17;;;13.30;99.90;;;;;;5082383;28;20441;-80
2022/05/29 11:54:23;;;;;;;5.60;3.00;;;13.40;99.90;;;;;;5121303;28;20978;-83
2022/05/29 11:56:57;;;;;;;5.50;2.57;;;13.50;99.90;;;;;;5119949;28;20970;-83
2022/05/29 11:59:41;;;;;;;7.00;3.90;;;13.60;99.90;;;;;;5118591;28;20875;-81
2022/05/29 12:02:20;;;;;;;8.67;4.00;;;13.60;99.90;;;;;;5118579;28;20470;-81
2022/05/29 12:04:57;;;;;;;6.60;3.60;;;13.70;99.90;;;;;;5121471;28;20520;-82
2022/05/29 12:07:33;;;;;;;7.07;3.43;;;13.70;99.90;;;;;;5121926;28;20507;-81
2022/05/29 12:10:08;;;;;;;6.47;3.40;;;13.70;99.90;;;;;;5120654;28;20525;-84
2022/05/29 12:12:42;;;;;;;7.53;3.80;;;13.70;99.90;;;;;;5121341;28;20522;-81
2022/05/29 12:15:16;;;;;;;8.17;4.20;;;13.60;99.90;;;;;;5119977;28;20500;-83
2022/05/29 12:17:50;;;;;;;9.07;4.13;;;13.40;99.90;;;;;;5118457;28;20474;-82
2022/05/29 12:20:24;;;;;;;7.80;3.40;;;13.30;99.90;;;;;;5117324;28;20447;-82
2022/05/29 12:22:58;;;;;;;8.93;3.40;;;13.20;99.90;;;;;;5119566;28;20462;-81
2022/05/29 12:25:33;;;;;;;10.67;4.67;;;13.20;99.90;;;;;;5120462;28;20444;-82
2022/05/29 12:28:08;;;;;;;6.83;3.80;;;13.10;99.90;;;;;;5120804;28;20844;-82
2022/05/29 12:30:40;;;;;;;9.43;3.40;;;13.10;99.90;;;;;;5125245;28;20445;-83
2022/05/29 12:33:15;;;;;;;10.50;4.00;;;13.20;99.90;;;;;;5125165;28;20467;-81
2022/05/29 12:35:52;;;;;;;9.03;4.70;;;13.20;99.90;;;;;;5123748;28;20431;-81
2022/05/29 12:38:39;;;;;;;9.30;3.83;;;13.20;99.90;;;;;;5121352;28;20506;-82
2022/05/29 12:41:23;;;;;;;11.00;4.83;;;13.30;99.90;;;;;;5127516;28;20431;-78
2022/05/29 12:44:30;;;;;;;8.77;3.93;;;13.20;99.90;;;;;;5134631;28;20967;-81
2022/05/29 12:47:20;;;;;;;7.67;3.37;;;13.20;99.90;;;;;;5128440;28;20482;-83
2022/05/29 12:50:19;;;;;;;8.50;3.53;;;13.10;99.90;;;;;;5120060;28;20866;-81
2022/05/29 12:53:20;;;;;;;8.27;3.40;;;13.10;99.90;;;;;;5120785;28;20448;-82
2022/05/29 12:56:05;;;;;;;8.43;4.17;;;13.10;99.90;;;;;;5120203;28;20468;-82
2022/05/29 12:59:15;;;;;;;7.70;4.00;;;13.10;99.90;;;;;;5119169;28;20517;-82
2022/05/29 13:02:07;;;;;;;8.77;4.40;;;13.20;99.90;;;;;;5114368;28;20542;-82
2022/05/29 13:05:06;;;;;;;10.47;3.90;;;13.30;99.90;;;;;;5120459;28;20992;-82
2022/05/29 13:07:52;;;;;;;9.50;4.60;;;13.50;99.90;;;;;;5119557;28;20913;-83
2022/05/29 13:10:23;;;;;;;8.60;3.90;;;13.60;99.90;;;;;;5119644;28;20504;-82
2022/05/29 13:12:55;;;;;;;10.53;4.20;;;13.60;99.90;;;;;;5119412;28;20984;-82
2022/05/29 13:15:32;;;;;;;10.87;4.30;;;13.60;99.90;;;;;;5119973;28;20478;-83
2022/05/29 13:18:11;;;;;;;8.03;3.23;;;13.60;99.90;;;;;;5120081;28;20776;-82
2022/05/29 13:21:12;;;;;;;7.10;3.80;;;13.60;99.90;;;;;;5119150;28;20517;-80
2022/05/29 13:23:45;;;;;;;9.07;4.20;;;13.60;99.90;;;;;;5120659;28;20465;-81
2022/05/29 13:26:21;;;;;;;11.03;3.77;;;13.60;99.90;;;;;;5119596;28;20932;-82
2022/05/29 13:28:53;;;;;;;9.73;3.57;;;13.60;99.90;;;;;;5119942;28;20435;-82
2022/05/29 13:31:22;;;;;;;9.60;4.17;;;13.50;99.90;;;;;;5120710;28;20447;-83
2022/05/29 13:33:59;;;;;;;10.10;4.83;;;13.60;99.90;;;;;;5119789;28;20467;-82
2022/05/29 13:37:04;;;;;;;9.00;4.10;;;13.60;99.90;;;;;;5119780;28;20542;-81
2022/05/29 13:40:04;;;;;;;10.10;4.60;;;13.70;99.90;;;;;;5119609;28;20459;-82
2022/05/29 13:42:43;;;;;;;8.40;4.10;;;13.70;99.90;;;;;;5119043;28;20836;-81
2022/05/29 13:45:58;;;;;;;8.47;4.60;;;13.70;99.90;;;;;;5119531;28;20518;-83
2022/05/29 13:48:30;;;;;;;7.93;4.20;;;13.60;99.90;;;;;;5120943;28;20908;-82
2022/05/29 13:51:05;;;;;;;8.03;3.47;;;13.60;99.90;;;;;;5120060;28;20428;-82